MMGM/GYM METAR and TAF weather

Enter ICAO airport designator
Station Type Date Time Source
MMGM METAR 2019/08/22 01:45 UTC NOAA

MMGM 220145Z 20010KT 10SM FEW030CB SCT130 34/28 A2967 RMK 8/330


Station Type Date Time Source
MMGM Decoded METAR 2019/08/22 01:45 UTC NOAA

Station name not available
Aug 21, 2019 - 09:45 PM EDT / 2019.08.22 0145 UTC
Wind: from the SSW (200 degrees) at 12 MPH (10 KT):0
Visibility: 10 mile(s):0
Sky conditions: partly cloudy
Weather: Cumulonimbus clouds observed
Temperature: 93 F (34 C)
Heat index: 116.4 F (46.9 C):1
Dew Point: 82 F (28 C)
Relative Humidity: 71%
Pressure (altimeter): 29.67 in. Hg (1004 hPa)
ob: MMGM 220145Z 20010KT 10SM FEW030CB SCT130 34/28 A2967 RMK 8/330
cycle: 2

Station Type Date Time Source
MMGM TAF 2019/08/21 18:39 UTC NOAA

TAF MMGM 211632Z 2118/2218 20010KT P6SM SCT100
FM220100 24010KT P6SM SCT025 BKN250 PROB40 2204/2208 3SM TSRA BKN020CB
FM220900 06010KT P6SM SCT020 BKN080
TEMPO 2210/2214 5SM RA BKN015

Example: see airport list